createdAt,value
2019-03-21T00:02:02.486Z,99.90
2019-03-21T00:05:09.511Z,99.90
2019-03-21T00:08:13.391Z,99.90
2019-03-21T00:11:55.120Z,99.90
2019-03-21T00:15:22.911Z,99.90
2019-03-21T00:18:26.765Z,99.90
2019-03-21T00:21:30.642Z,99.90
2019-03-21T00:24:34.495Z,99.90
2019-03-21T00:27:38.405Z,99.90
2019-03-21T00:30:42.247Z,99.90
2019-03-21T00:33:46.641Z,99.90
2019-03-21T00:36:50.465Z,99.90
2019-03-21T00:39:54.331Z,99.90
2019-03-21T00:43:00.185Z,99.90
2019-03-21T00:46:04.075Z,99.90
2019-03-21T00:49:07.910Z,99.90
2019-03-21T00:52:12.644Z,99.90
2019-03-21T00:55:16.501Z,99.90
2019-03-21T00:58:20.389Z,99.90
2019-03-21T01:01:24.821Z,99.90
2019-03-21T01:04:29.342Z,99.90
2019-03-21T01:07:33.188Z,99.90
2019-03-21T01:10:37.070Z,99.90
2019-03-21T01:13:41.516Z,99.90
2019-03-21T01:16:45.486Z,99.90
2019-03-21T01:19:49.316Z,99.90
2019-03-21T01:22:53.215Z,99.90
2019-03-21T01:26:00.350Z,99.90
2019-03-21T01:29:04.241Z,99.90
2019-03-21T01:32:08.156Z,99.90
2019-03-21T01:35:12.127Z,99.90
2019-03-21T01:38:15.966Z,99.90
2019-03-21T01:41:20.546Z,99.90
2019-03-21T01:44:24.475Z,99.90
2019-03-21T01:47:28.366Z,99.90
2019-03-21T01:50:39.721Z,99.90
2019-03-21T01:53:43.604Z,99.90
2019-03-21T01:56:47.451Z,99.90
2019-03-21T01:59:51.346Z,99.90
2019-03-21T02:02:57.091Z,99.90
2019-03-21T02:06:00.950Z,99.90
2019-03-21T02:09:08.663Z,99.90
2019-03-21T02:12:12.514Z,99.90
2019-03-21T02:15:17.761Z,99.90
2019-03-21T02:18:21.622Z,99.90
2019-03-21T02:21:25.471Z,99.90
2019-03-21T02:24:29.374Z,99.90
2019-03-21T02:27:33.231Z,99.90
2019-03-21T02:30:41.804Z,99.90
2019-03-21T02:33:46.028Z,99.90
2019-03-21T02:36:49.921Z,99.90
2019-03-21T02:39:59.832Z,99.90
2019-03-21T02:42:59.283Z,99.90
2019-03-21T02:46:03.120Z,99.90
2019-03-21T02:49:07.010Z,99.90
2019-03-21T02:52:10.838Z,99.90
2019-03-21T02:55:14.784Z,99.90
2019-03-21T02:58:18.612Z,99.90
2019-03-21T03:01:22.497Z,99.90
2019-03-21T03:04:26.331Z,99.90
2019-03-21T03:07:30.231Z,99.90
2019-03-21T03:10:51.666Z,99.90
2019-03-21T03:13:55.761Z,99.90
2019-03-21T03:16:59.573Z,99.90
2019-03-21T03:20:05.050Z,99.90
2019-03-21T03:23:08.887Z,99.90
2019-03-21T03:26:12.866Z,99.90
2019-03-21T03:29:16.720Z,99.90
2019-03-21T03:32:21.229Z,99.90
2019-03-21T03:35:25.066Z,99.90
2019-03-21T03:38:28.961Z,99.90
2019-03-21T03:41:32.806Z,99.90
2019-03-21T03:44:36.708Z,99.90
2019-03-21T03:47:40.542Z,99.90
2019-03-21T03:50:44.441Z,99.90
2019-03-21T03:53:48.286Z,99.90
2019-03-21T03:56:52.155Z,99.90
2019-03-21T03:59:56.001Z,99.90
2019-03-21T04:02:59.903Z,99.90
2019-03-21T04:06:03.761Z,99.90
2019-03-21T04:09:08.772Z,99.90
2019-03-21T04:12:12.710Z,99.90
2019-03-21T04:15:16.781Z,99.90
2019-03-21T04:18:22.784Z,99.90
2019-03-21T04:21:26.704Z,99.90
2019-03-21T04:24:30.985Z,99.90
2019-03-21T04:27:34.938Z,99.90
2019-03-21T04:30:38.827Z,99.90
2019-03-21T04:33:44.533Z,99.90
2019-03-21T04:36:48.381Z,99.90
2019-03-21T04:39:52.295Z,99.90
2019-03-21T04:42:56.151Z,99.90
2019-03-21T04:46:03.629Z,99.90
2019-03-21T04:49:05.502Z,99.90
2019-03-21T04:52:09.447Z,99.90
2019-03-21T04:55:15.697Z,99.90
2019-03-21T04:58:19.571Z,99.90
2019-03-21T05:01:23.435Z,99.90
2019-03-21T05:04:27.331Z,99.90
2019-03-21T05:07:31.193Z,99.90
2019-03-21T05:10:35.094Z,99.90
2019-03-21T05:13:38.975Z,99.90
2019-03-21T05:16:42.873Z,99.90
2019-03-21T05:19:46.701Z,99.90
2019-03-21T05:22:50.600Z,99.90
2019-03-21T05:25:54.447Z,99.90
2019-03-21T05:28:58.347Z,99.90
2019-03-21T05:32:03.772Z,99.90
2019-03-21T05:35:09.782Z,99.90
2019-03-21T05:38:14.590Z,99.90
2019-03-21T05:41:18.487Z,99.60
2019-03-21T05:44:25.251Z,99.10
2019-03-21T05:47:29.151Z,98.10
2019-03-21T05:50:32.966Z,96.60
2019-03-21T05:53:36.846Z,96.40
2019-03-21T05:56:40.679Z,94.50
2019-03-21T05:59:44.605Z,93.20
2019-03-21T06:02:48.443Z,91.10
2019-03-21T06:05:55.264Z,88.30
2019-03-21T06:08:59.102Z,84.40
2019-03-21T06:12:05.005Z,81.50
2019-03-21T06:15:11.837Z,76.70
2019-03-21T06:18:24.538Z,72.40
2019-03-21T06:21:51.120Z,67.60
2019-03-21T06:25:00.942Z,68.20
2019-03-21T06:28:04.776Z,63.50
2019-03-21T06:31:08.720Z,58.10
2019-03-21T06:34:13.127Z,56.30
2019-03-21T06:37:17.018Z,50.90
2019-03-21T06:40:20.850Z,46.70
2019-03-21T06:43:24.766Z,48.10
2019-03-21T06:46:28.629Z,46.30
2019-03-21T06:49:32.527Z,51.30
2019-03-21T06:52:36.364Z,47.30
2019-03-21T06:55:40.250Z,44.20
2019-03-21T06:58:44.101Z,45.90
2019-03-21T07:01:47.942Z,48.30
2019-03-21T07:04:52.001Z,53.30
2019-03-21T07:07:55.873Z,59.30
2019-03-21T07:10:59.806Z,62.70
2019-03-21T07:14:03.710Z,67.90
2019-03-21T07:17:07.585Z,73.10
2019-03-21T07:20:13.646Z,77.70
2019-03-21T07:23:18.082Z,81.20
2019-03-21T07:26:21.966Z,85.80
2019-03-21T07:29:26.167Z,86.40
2019-03-21T07:32:33.608Z,86.60
2019-03-21T07:35:35.509Z,87.60
2019-03-21T07:38:39.445Z,86.50
2019-03-21T07:41:43.282Z,86.90
2019-03-21T07:44:47.247Z,85.60
2019-03-21T07:47:51.388Z,86.20
2019-03-21T07:50:55.281Z,82.30
2019-03-21T07:53:59.147Z,82.90
2019-03-21T07:57:03.042Z,82.40
2019-03-21T08:00:13.073Z,79.80
2019-03-21T08:03:16.969Z,72.60
2019-03-21T08:06:20.782Z,70.20
2019-03-21T08:09:24.692Z,64.70
2019-03-21T08:12:28.517Z,64.50
2019-03-21T08:15:32.395Z,63.90
2019-03-21T08:18:36.246Z,67.60
2019-03-21T08:21:40.295Z,67.60
2019-03-21T08:24:44.104Z,67.80
2019-03-21T08:27:48.251Z,69.20
2019-03-21T08:31:07.881Z,74.20
2019-03-21T08:34:14.304Z,77.30
2019-03-21T08:37:18.651Z,80.00
2019-03-21T08:40:22.709Z,82.40
2019-03-21T08:43:26.682Z,84.00
2019-03-21T08:46:30.771Z,85.60
2019-03-21T08:49:34.753Z,88.40
2019-03-21T08:52:38.713Z,89.90
2019-03-21T08:55:42.892Z,90.10
2019-03-21T08:58:46.759Z,90.10
2019-03-21T09:01:50.791Z,91.20
2019-03-21T09:04:54.742Z,91.30
2019-03-21T09:07:58.825Z,90.70
2019-03-21T09:11:03.021Z,91.20
2019-03-21T09:14:07.248Z,91.70
2019-03-21T09:17:11.551Z,92.60
2019-03-21T09:20:15.529Z,93.00
2019-03-21T09:23:19.588Z,92.10
2019-03-21T09:26:24.828Z,91.70
2019-03-21T09:29:29.028Z,91.40
2019-03-21T09:32:33.130Z,92.30
2019-03-21T09:35:37.296Z,92.70
2019-03-21T09:38:42.917Z,92.00
2019-03-21T09:41:46.783Z,91.70
2019-03-21T09:44:50.628Z,91.70
2019-03-21T09:47:54.541Z,91.40
2019-03-21T09:50:58.351Z,91.30
2019-03-21T09:54:09.597Z,92.30
2019-03-21T09:57:07.732Z,92.30
2019-03-21T10:00:12.010Z,92.10
2019-03-21T10:03:15.864Z,92.40
2019-03-21T10:06:19.767Z,92.40
2019-03-21T10:09:23.603Z,91.80
2019-03-21T10:12:27.492Z,91.70
2019-03-21T10:15:31.365Z,92.00
2019-03-21T10:18:35.240Z,91.40
2019-03-21T10:21:43.567Z,91.20
2019-03-21T10:24:44.624Z,91.70
2019-03-21T10:27:48.562Z,91.70
2019-03-21T10:30:52.387Z,90.80
2019-03-21T10:33:56.272Z,90.60
2019-03-21T10:37:00.386Z,91.20
2019-03-21T10:40:05.392Z,90.40
2019-03-21T10:43:10.495Z,90.10
2019-03-21T10:46:14.690Z,90.60
2019-03-21T10:49:18.531Z,89.90
2019-03-21T10:52:22.430Z,88.00
2019-03-21T10:55:26.366Z,90.00
2019-03-21T10:58:30.220Z,89.30
2019-03-21T11:01:34.145Z,88.30
2019-03-21T11:04:37.985Z,88.00
2019-03-21T11:07:41.866Z,89.20
2019-03-21T11:10:47.184Z,88.60
2019-03-21T11:13:51.376Z,89.20
2019-03-21T11:16:55.364Z,88.80
2019-03-21T11:19:59.218Z,89.00
2019-03-21T11:23:03.223Z,89.40
2019-03-21T11:26:07.281Z,89.00
2019-03-21T11:29:11.113Z,89.60
2019-03-21T11:32:15.041Z,90.50
2019-03-21T11:35:18.886Z,90.20
2019-03-21T11:38:22.789Z,90.30
2019-03-21T11:41:26.645Z,90.50
2019-03-21T11:44:30.555Z,90.20
2019-03-21T11:47:41.757Z,90.70
2019-03-21T11:50:40.008Z,90.90
2019-03-21T11:53:43.911Z,90.70
2019-03-21T11:56:47.732Z,90.10
2019-03-21T11:59:52.476Z,90.40
2019-03-21T12:02:56.508Z,90.40
2019-03-21T12:06:00.420Z,90.10
2019-03-21T12:09:06.765Z,89.90
2019-03-21T12:12:10.692Z,90.80
2019-03-21T12:15:14.727Z,90.00
2019-03-21T12:18:18.657Z,90.20
2019-03-21T12:21:22.529Z,89.60
2019-03-21T12:24:26.382Z,90.40
2019-03-21T12:27:30.289Z,89.30
2019-03-21T12:30:38.893Z,89.60
2019-03-21T12:33:42.781Z,89.30
2019-03-21T12:36:46.621Z,88.50
2019-03-21T12:39:50.528Z,89.00
2019-03-21T12:42:54.355Z,88.50
2019-03-21T12:45:58.362Z,87.80
2019-03-21T12:49:02.264Z,88.90
2019-03-21T12:52:06.110Z,87.50
2019-03-21T12:55:10.086Z,88.10
2019-03-21T12:58:13.881Z,85.80
2019-03-21T13:01:17.766Z,84.00
2019-03-21T13:04:21.588Z,83.80
2019-03-21T13:07:28.555Z,81.00
2019-03-21T13:10:32.391Z,81.90
2019-03-21T13:13:36.312Z,83.00
2019-03-21T13:16:40.224Z,82.70
2019-03-21T13:19:44.083Z,83.50
2019-03-21T13:22:52.772Z,83.50
2019-03-21T13:25:53.520Z,83.80
2019-03-21T13:28:57.443Z,84.30
2019-03-21T13:32:01.307Z,85.00
2019-03-21T13:35:07.143Z,85.10
2019-03-21T13:38:11.047Z,86.30
2019-03-21T13:41:14.966Z,87.50
2019-03-21T13:44:18.834Z,86.80
2019-03-21T13:47:23.947Z,87.00
2019-03-21T13:50:27.806Z,87.20
2019-03-21T13:53:31.723Z,87.20
2019-03-21T13:56:38.347Z,90.00
2019-03-21T13:59:41.161Z,88.40
2019-03-21T14:02:45.019Z,89.90
2019-03-21T14:05:48.867Z,90.10
2019-03-21T14:08:52.795Z,89.70
2019-03-21T14:11:56.627Z,90.20
2019-03-21T14:15:00.527Z,90.20
2019-03-21T14:18:04.465Z,90.20
2019-03-21T14:21:08.361Z,90.50
2019-03-21T14:24:12.264Z,90.20
2019-03-21T14:27:16.126Z,90.60
2019-03-21T14:30:21.093Z,90.40
2019-03-21T14:33:24.973Z,91.40
2019-03-21T14:36:28.841Z,91.50
2019-03-21T14:39:32.876Z,91.70
2019-03-21T14:42:36.744Z,92.10
2019-03-21T14:45:40.611Z,92.10
2019-03-21T14:48:44.599Z,92.40
2019-03-21T14:51:48.508Z,92.40
2019-03-21T14:54:52.326Z,92.30
2019-03-21T14:57:56.232Z,93.00
2019-03-21T15:01:00.063Z,92.30
2019-03-21T15:04:04.044Z,92.30
2019-03-21T15:07:07.847Z,92.20
2019-03-21T15:10:14.641Z,92.40
2019-03-21T15:13:18.492Z,92.30
2019-03-21T15:16:22.347Z,92.00
2019-03-21T15:19:26.192Z,92.70
2019-03-21T15:22:30.069Z,92.10
2019-03-21T15:25:33.965Z,92.20
2019-03-21T15:28:37.956Z,92.50
2019-03-21T15:31:41.828Z,92.20
2019-03-21T15:34:45.682Z,92.40
2019-03-21T15:37:49.600Z,92.80
2019-03-21T15:40:53.487Z,92.70
2019-03-21T15:43:57.312Z,92.30
2019-03-21T15:47:01.207Z,92.60
2019-03-21T15:50:08.290Z,92.80
2019-03-21T15:53:12.547Z,93.10
2019-03-21T15:56:16.425Z,93.10
2019-03-21T15:59:20.283Z,93.30
2019-03-21T16:02:24.793Z,93.30
2019-03-21T16:05:28.740Z,93.70
2019-03-21T16:08:32.633Z,94.00
2019-03-21T16:11:36.538Z,94.10
2019-03-21T16:14:40.421Z,94.00
2019-03-21T16:17:44.301Z,94.30
2019-03-21T16:20:48.188Z,94.40
2019-03-21T16:24:04.227Z,94.60
2019-03-21T16:26:57.809Z,94.90
2019-03-21T16:30:01.655Z,95.00
2019-03-21T16:33:05.543Z,95.30
2019-03-21T16:36:09.440Z,95.30
2019-03-21T16:39:13.264Z,95.20
2019-03-21T16:42:17.178Z,95.30
2019-03-21T16:45:21.481Z,95.60
2019-03-21T16:48:25.551Z,95.50
2019-03-21T16:51:29.421Z,95.70
2019-03-21T16:54:33.255Z,95.40
2019-03-21T16:57:38.311Z,96.00
2019-03-21T17:00:43.867Z,96.20
2019-03-21T17:03:47.780Z,96.10
2019-03-21T17:06:51.662Z,96.60
2019-03-21T17:09:57.922Z,96.30
2019-03-21T17:13:04.440Z,96.50
2019-03-21T17:16:06.562Z,96.90
2019-03-21T17:19:10.467Z,96.80
2019-03-21T17:22:14.763Z,96.80
2019-03-21T17:25:18.636Z,97.10
2019-03-21T17:28:22.533Z,98.30
2019-03-21T17:31:26.364Z,98.10
2019-03-21T17:34:30.803Z,98.30
2019-03-21T17:37:34.663Z,98.20
2019-03-21T17:40:38.571Z,98.60
2019-03-21T17:43:42.506Z,98.40
2019-03-21T17:46:46.430Z,98.90
2019-03-21T17:49:50.228Z,98.60
2019-03-21T17:52:54.124Z,98.70
2019-03-21T17:55:58.013Z,98.10
2019-03-21T17:59:01.881Z,99.00
2019-03-21T18:02:05.748Z,99.50
2019-03-21T18:05:09.832Z,99.70
2019-03-21T18:08:13.958Z,99.60
2019-03-21T18:11:17.871Z,99.90
2019-03-21T18:14:21.723Z,99.90
2019-03-21T18:17:26.309Z,99.90
2019-03-21T18:20:30.161Z,99.90
2019-03-21T18:23:34.071Z,99.70
2019-03-21T18:26:37.926Z,99.30
2019-03-21T18:29:41.837Z,98.90
2019-03-21T18:32:45.743Z,99.70
2019-03-21T18:35:49.580Z,99.80
2019-03-21T18:38:59.355Z,99.50
2019-03-21T18:41:59.082Z,99.80
2019-03-21T18:45:03.939Z,99.30
2019-03-21T18:48:07.905Z,99.30
2019-03-21T18:51:11.881Z,99.30
2019-03-21T18:54:15.843Z,99.90
2019-03-21T18:57:19.956Z,99.90
2019-03-21T19:00:24.153Z,99.70
2019-03-21T19:03:28.166Z,99.90
2019-03-21T19:06:32.208Z,99.90
2019-03-21T19:09:36.107Z,99.90
2019-03-21T19:12:40.191Z,99.90
2019-03-21T19:15:44.250Z,99.90
2019-03-21T19:18:48.137Z,99.90
2019-03-21T19:21:52.236Z,99.90
2019-03-21T19:24:56.253Z,99.90
2019-03-21T19:28:00.181Z,99.90
2019-03-21T19:31:05.561Z,99.90
2019-03-21T19:34:09.531Z,99.90
2019-03-21T19:37:13.469Z,99.90
2019-03-21T19:40:20.243Z,99.90
2019-03-21T19:43:24.491Z,99.90
2019-03-21T19:46:28.551Z,99.90
2019-03-21T19:49:32.579Z,99.90
2019-03-21T19:52:38.211Z,99.90
2019-03-21T19:55:42.086Z,99.90
2019-03-21T19:58:45.979Z,99.90
2019-03-21T20:01:49.936Z,99.90
2019-03-21T20:04:53.930Z,99.90
2019-03-21T20:07:57.819Z,99.90
2019-03-21T20:11:01.738Z,99.90
2019-03-21T20:14:05.679Z,99.90
2019-03-21T20:17:09.563Z,99.90
2019-03-21T20:20:15.490Z,99.90
2019-03-21T20:23:19.300Z,99.90
2019-03-21T20:26:23.205Z,99.90
2019-03-21T20:29:27.135Z,99.90
2019-03-21T20:32:30.993Z,99.90
2019-03-21T20:35:35.008Z,99.90
2019-03-21T20:38:38.880Z,99.90
2019-03-21T20:41:42.788Z,99.90
2019-03-21T20:44:46.711Z,99.90
2019-03-21T20:47:50.600Z,99.90
2019-03-21T20:50:54.460Z,99.90
2019-03-21T20:53:58.437Z,99.90
2019-03-21T20:57:02.443Z,99.90
2019-03-21T21:00:12.222Z,99.90
2019-03-21T21:03:16.128Z,99.90
2019-03-21T21:06:20.106Z,99.90
2019-03-21T21:09:23.997Z,99.90
2019-03-21T21:12:27.858Z,99.90
2019-03-21T21:15:31.804Z,99.90
2019-03-21T21:18:36.630Z,99.90
2019-03-21T21:21:40.521Z,99.90
2019-03-21T21:24:45.174Z,99.90
2019-03-21T21:27:50.242Z,99.90
2019-03-21T21:30:54.373Z,99.90
2019-03-21T21:33:58.261Z,99.90
2019-03-21T21:37:02.161Z,99.90
2019-03-21T21:40:10.409Z,99.90
2019-03-21T21:43:14.288Z,99.90
2019-03-21T21:46:18.156Z,99.90
2019-03-21T21:49:22.041Z,99.90
2019-03-21T21:52:26.611Z,99.90
2019-03-21T21:55:30.475Z,99.90
2019-03-21T21:58:34.393Z,99.90
2019-03-21T22:01:38.252Z,99.90
2019-03-21T22:04:42.180Z,99.90
2019-03-21T22:07:46.027Z,99.90
2019-03-21T22:10:49.968Z,99.90
2019-03-21T22:13:53.811Z,99.90
2019-03-21T22:16:57.700Z,99.90
2019-03-21T22:20:01.567Z,99.90
2019-03-21T22:23:05.486Z,99.90
2019-03-21T22:26:09.433Z,99.90
2019-03-21T22:29:13.361Z,99.90
2019-03-21T22:32:17.223Z,99.90
2019-03-21T22:35:21.246Z,99.90
2019-03-21T22:38:25.281Z,99.90
2019-03-21T22:41:29.140Z,99.90
2019-03-21T22:44:32.992Z,99.90
2019-03-21T22:47:36.861Z,99.90
2019-03-21T22:50:41.140Z,99.90
2019-03-21T22:53:45.042Z,99.90
2019-03-21T22:56:48.883Z,99.90
2019-03-21T22:59:52.826Z,99.90
2019-03-21T23:02:57.176Z,99.90
2019-03-21T23:06:01.102Z,99.90
2019-03-21T23:09:07.501Z,99.90
2019-03-21T23:12:11.406Z,99.90
2019-03-21T23:15:15.407Z,99.90
2019-03-21T23:18:19.241Z,99.90
2019-03-21T23:21:23.111Z,99.90
2019-03-21T23:24:26.949Z,99.90
2019-03-21T23:27:30.970Z,99.90
2019-03-21T23:30:34.828Z,99.90
2019-03-21T23:33:38.804Z,99.90
2019-03-21T23:36:44.762Z,99.90
2019-03-21T23:39:48.268Z,99.90
2019-03-21T23:42:52.161Z,99.90
2019-03-21T23:45:56.041Z,99.90
2019-03-21T23:48:59.942Z,99.90
2019-03-21T23:52:03.782Z,99.90
2019-03-21T23:55:09.004Z,99.90
2019-03-21T23:58:12.868Z,99.90
